Time;durP1;ratioP1;P1;durP2;ratioP2;P2;SDS_P1;SDS_P2;PMS_P1;PMS_P2;Temp;Humidity;BMP_temperature;BMP_pressure;BME280_temperature;BME280_humidity;BME280_pressure;Samples;Min_cycle;Max_cycle;Signal;HPM_P1;HPM_P2
2022/06/23 00:04:16;;;;;;;4.30;2.72;;;27.70;64.80;;;;;;10943882;32;20045;-74
2022/06/23 00:10:18;;;;;;;8.68;3.97;;;27.60;65.00;;;;;;10943580;32;20031;-74
2022/06/23 00:16:26;;;;;;;4.53;3.50;;;27.50;65.10;;;;;;10943699;32;20431;-74
2022/06/23 00:22:29;;;;;;;;;;;27.40;65.20;;;;;;10929894;32;20061;-74
2022/06/23 00:28:45;;;;;;;6.47;4.43;;;27.30;65.30;;;;;;10942807;32;19961;-74
2022/06/23 00:35:03;;;;;;;9.63;5.53;;;27.40;65.50;;;;;;10942890;32;20434;-74
2022/06/23 00:41:17;;;;;;;13.10;5.53;;;27.30;65.50;;;;;;10943258;32;20019;-74
2022/06/23 00:47:34;;;;;;;7.00;5.25;;;27.30;65.90;;;;;;10942522;32;20319;-74
2022/06/23 00:53:43;;;;;;;6.85;5.55;;;27.30;66.50;;;;;;10942275;32;20437;-74
2022/06/23 01:00:00;;;;;;;7.15;3.95;;;27.20;66.40;;;;;;10942266;32;20018;-74
2022/06/23 01:06:56;;;;;;;6.37;4.72;;;27.00;66.50;;;;;;10942041;32;20038;-74
2022/06/23 01:13:29;;;;;;;6.55;4.78;;;26.80;66.70;;;;;;10943030;32;20068;-74
2022/06/23 01:19:52;;;;;;;5.80;4.30;;;26.80;66.80;;;;;;10938847;32;20391;-74
2022/06/23 01:26:31;;;;;;;5.53;4.55;;;26.80;66.70;;;;;;10941742;32;20014;-74
2022/06/23 01:32:46;;;;;;;6.22;4.40;;;26.90;66.60;;;;;;10941603;32;20536;-74
2022/06/23 01:39:24;;;;;;;6.10;4.37;;;26.80;66.90;;;;;;10948928;32;20069;-74
2022/06/23 01:45:47;;;;;;;9.73;5.55;;;26.80;66.80;;;;;;10935478;32;20426;-74
2022/06/23 01:51:50;;;;;;;6.95;4.85;;;26.80;67.20;;;;;;10948654;32;20427;-74
2022/06/23 01:58:04;;;;;;;11.85;4.53;;;26.80;67.30;;;;;;10949032;32;20022;-74
2022/06/23 02:04:19;;;;;;;6.95;4.25;;;26.70;67.40;;;;;;10948160;32;20031;-74
2022/06/23 02:10:41;;;;;;;7.70;4.78;;;26.60;67.50;;;;;;10947925;32;20062;-74
2022/06/23 02:16:48;;;;;;;10.75;5.40;;;26.40;67.80;;;;;;10947792;32;20398;-74
2022/06/23 02:23:48;;;;;;;10.50;5.25;;;26.30;67.90;;;;;;10945132;32;20096;-74
2022/06/23 02:30:14;;;;;;;6.12;4.80;;;26.30;67.60;;;;;;10941318;32;20023;-74
2022/06/23 02:36:31;;;;;;;6.55;5.25;;;26.40;67.50;;;;;;10947041;32;20031;-74
2022/06/23 02:42:38;;;;;;;7.07;5.75;;;26.40;67.90;;;;;;10947061;32;20193;-74
2022/06/23 02:49:05;;;;;;;7.32;5.05;;;26.30;68.10;;;;;;10946547;32;20429;-74
2022/06/23 02:55:19;;;;;;;11.85;5.82;;;26.20;68.00;;;;;;10946528;32;20049;-74
2022/06/23 03:01:49;;;;;;;6.78;4.80;;;26.10;68.30;;;;;;10946445;32;20045;-74
2022/06/23 03:08:06;;;;;;;8.32;4.68;;;26.10;68.20;;;;;;10945800;32;20053;-74
2022/06/23 03:14:24;;;;;;;7.43;5.00;;;25.80;68.40;;;;;;10947114;32;20023;-74
2022/06/23 03:21:11;;;;;;;7.72;6.12;;;25.80;68.50;;;;;;10942826;32;20288;-74
2022/06/23 03:27:28;;;;;;;8.80;6.40;;;26.00;68.40;;;;;;10792156;33;20035;-74
2022/06/23 03:33:35;;;;;;;9.48;7.37;;;25.90;68.40;;;;;;10791949;33;20024;-74
2022/06/23 03:46:34;;;;;;;8.27;6.32;;;25.90;68.40;;;;;;10792722;33;20060;-74
2022/06/23 03:52:48;;;;;;;8.13;6.93;;;25.70;68.70;;;;;;10791056;33;20024;-73
2022/06/23 03:59:29;;;;;;;8.25;5.62;;;25.70;69.20;;;;;;10936062;32;20026;-74
2022/06/23 04:06:19;;;;;;;8.27;6.20;;;25.70;69.60;;;;;;10791886;32;20050;-74
2022/06/23 04:12:22;;;;;;;7.93;5.72;;;25.80;69.10;;;;;;10790549;32;20040;-74
2022/06/23 04:18:28;;;;;;;6.40;4.82;;;25.70;69.10;;;;;;10788944;32;20063;-74
2022/06/23 04:24:34;;;;;;;8.23;6.55;;;25.80;69.10;;;;;;10790276;32;20024;-74
2022/06/23 04:30:39;;;;;;;9.05;6.55;;;25.80;69.00;;;;;;10846514;27;20067;-74
2022/06/23 04:36:45;;;;;;;9.50;6.80;;;25.80;69.00;;;;;;10851344;32;20027;-75
2022/06/23 04:42:57;;;;;;;14.05;7.15;;;25.80;69.10;;;;;;10939608;32;20031;-74
2022/06/23 04:49:04;;;;;;;10.77;7.25;;;25.80;68.80;;;;;;10942605;32;20027;-74
2022/06/23 04:55:19;;;;;;;6.95;5.60;;;25.80;68.80;;;;;;10942622;32;20065;-72
2022/06/23 05:01:34;;;;;;;10.30;6.05;;;25.90;68.90;;;;;;10929616;32;20035;-74
2022/06/23 05:07:53;;;;;;;12.75;8.30;;;25.90;69.20;;;;;;10942018;32;20031;-75
2022/06/23 05:14:34;;;;;;;12.77;8.30;;;26.10;68.90;;;;;;10942044;32;20042;-74
2022/06/23 05:21:49;;;;;;;9.75;7.53;;;26.00;68.90;;;;;;10863631;32;20042;-74
2022/06/23 05:27:53;;;;;;;10.38;8.38;;;26.20;68.70;;;;;;10860730;32;20039;-74
2022/06/23 05:33:59;;;;;;;10.73;7.30;;;26.30;68.50;;;;;;10863085;32;20359;-75
2022/06/23 05:40:15;;;;;;;8.40;6.10;;;26.30;68.50;;;;;;10863002;32;20056;-73
2022/06/23 05:46:21;;;;;;;17.17;9.63;;;26.40;68.70;;;;;;10863619;32;20039;-74
2022/06/23 05:52:42;;;;;;;13.32;9.35;;;26.60;68.60;;;;;;10892994;32;20041;-74
2022/06/23 05:58:55;;;;;;;11.82;7.85;;;26.70;68.30;;;;;;10941012;32;20054;-71
2022/06/23 06:05:29;;;;;;;15.73;10.10;;;26.80;68.30;;;;;;10940125;32;20027;-73
2022/06/23 06:11:50;;;;;;;13.02;9.63;;;26.80;68.30;;;;;;10940932;32;20429;-69
2022/06/23 06:18:06;;;;;;;10.18;8.15;;;27.00;68.60;;;;;;10936926;32;20019;-69
2022/06/23 06:24:31;;;;;;;11.88;9.32;;;27.10;68.40;;;;;;10942893;32;20053;-67
2022/06/23 06:30:38;;;;;;;11.77;7.40;;;27.30;68.10;;;;;;10922931;32;20034;-67
2022/06/23 06:36:54;;;;;;;12.95;8.77;;;27.30;68.20;;;;;;10932007;32;20058;-67
2022/06/23 06:43:06;;;;;;;10.55;7.97;;;27.50;68.00;;;;;;10925878;32;20406;-68
2022/06/23 06:49:25;;;;;;;11.98;8.85;;;27.70;67.70;;;;;;10897559;32;20020;-67
2022/06/23 06:55:26;;;;;;;;;;;27.80;67.60;;;;;;10905583;32;20036;-69
2022/06/23 07:01:33;;;;;;;17.37;8.30;;;27.80;67.60;;;;;;10904331;32;19922;-67
2022/06/23 07:08:10;;;;;;;12.43;7.53;;;28.00;67.30;;;;;;10905461;32;20031;-67
2022/06/23 07:14:18;;;;;;;10.77;6.85;;;28.10;67.00;;;;;;10907545;32;20448;-68
2022/06/23 07:20:25;;;;;;;9.02;6.20;;;28.20;67.10;;;;;;10927889;32;20023;-68
2022/06/23 07:26:54;;;;;;;10.95;7.57;;;28.30;67.00;;;;;;10929501;32;20308;-68
2022/06/23 07:33:00;;;;;;;;;;;28.40;66.70;;;;;;10944664;32;20116;-73
2022/06/23 07:39:28;;;;;;;8.77;5.55;;;28.50;66.80;;;;;;10945081;32;19941;-71
2022/06/23 07:45:43;;;;;;;10.27;7.03;;;28.70;66.60;;;;;;10944746;32;20031;-72
2022/06/23 07:51:45;;;;;;;12.32;7.80;;;28.70;66.40;;;;;;10944703;32;20465;-73
2022/06/23 07:57:48;;;;;;;13.88;8.15;;;28.80;66.30;;;;;;10944446;32;20023;-72
2022/06/23 08:04:20;;;;;;;13.68;5.12;;;28.80;66.20;;;;;;10943615;32;20041;-67
2022/06/23 08:10:31;;;;;;;10.05;4.93;;;29.00;65.80;;;;;;10753899;33;20294;-68
2022/06/23 08:16:49;;;;;;;7.65;6.05;;;29.30;65.20;;;;;;10753058;33;20025;-67
2022/06/23 08:22:54;;;;;;;7.43;3.22;;;29.30;64.50;;;;;;10753214;33;20028;-67
2022/06/23 08:29:00;;;;;;;5.72;3.85;;;29.50;64.10;;;;;;10753467;33;20041;-68
2022/06/23 08:35:04;;;;;;;6.53;4.35;;;29.60;63.50;;;;;;10753337;33;20420;-69
2022/06/23 08:41:29;;;;;;;11.10;6.45;;;29.90;63.00;;;;;;10754511;33;20426;-67
2022/06/23 08:47:53;;;;;;;16.77;6.28;;;29.90;63.00;;;;;;10889153;32;20019;-67
2022/06/23 09:00:52;;;;;;;10.88;6.55;;;30.20;62.10;;;;;;10903710;32;20030;-68
2022/06/23 09:07:07;;;;;;;9.05;5.43;;;30.30;62.30;;;;;;10904547;32;20327;-68
2022/06/23 09:13:45;;;;;;;7.30;5.50;;;30.30;62.00;;;;;;10901442;32;20061;-67
2022/06/23 09:20:12;;;;;;;8.07;5.25;;;30.40;61.50;;;;;;10904377;32;20073;-68
2022/06/23 09:26:39;;;;;;;8.30;4.82;;;30.60;61.00;;;;;;10904246;32;20046;-67
2022/06/23 09:32:59;;;;;;;29.57;5.37;;;30.80;60.30;;;;;;10904107;32;20027;-68
2022/06/23 09:39:14;;;;;;;9.35;5.87;;;30.80;60.20;;;;;;10890088;32;20042;-68
2022/06/23 09:45:29;;;;;;;6.50;5.37;;;30.80;59.90;;;;;;10904468;32;20036;-67
2022/06/23 09:52:06;;;;;;;7.47;4.78;;;30.70;60.30;;;;;;10903654;32;20020;-68
2022/06/23 09:58:23;;;;;;;9.95;4.43;;;31.20;59.50;;;;;;10909334;32;20043;-67
2022/06/23 10:04:46;;;;;;;;;;;31.40;58.70;;;;;;10911101;32;20058;-69
2022/06/23 10:11:11;;;;;;;5.18;4.15;;;31.60;58.50;;;;;;10922889;32;19931;-68
2022/06/23 10:17:21;;;;;;;9.63;5.28;;;31.60;58.30;;;;;;10911560;32;20331;-68
2022/06/23 10:23:57;;;;;;;11.75;5.93;;;31.90;57.70;;;;;;10905943;32;20046;-69
2022/06/23 10:30:23;;;;;;;14.38;5.80;;;32.30;56.60;;;;;;10896328;32;20028;-69
2022/06/23 10:36:54;;;;;;;10.45;5.35;;;32.50;56.30;;;;;;10896405;32;20344;-68
2022/06/23 10:43:34;;;;;;;13.62;4.95;;;32.20;56.70;;;;;;10909480;32;20413;-68
2022/06/23 10:49:36;;;;;;;6.28;4.70;;;31.60;57.30;;;;;;10909233;32;20066;-68
2022/06/23 10:55:50;;;;;;;6.62;4.37;;;31.40;57.80;;;;;;10937964;32;20091;-69
2022/06/23 11:02:20;;;;;;;14.27;7.35;;;31.70;57.50;;;;;;10943041;32;20031;-69
2022/06/23 11:08:31;;;;;;;8.15;4.53;;;31.60;56.30;;;;;;10946006;32;20049;-67
2022/06/23 11:14:54;;;;;;;11.93;5.50;;;31.80;56.50;;;;;;10946112;32;20045;-70
2022/06/23 11:21:33;;;;;;;7.65;5.25;;;32.20;55.40;;;;;;10945873;32;20089;-69
2022/06/23 11:27:37;;;;;;;5.72;4.18;;;32.50;54.80;;;;;;10945587;32;20068;-69
2022/06/23 11:33:49;;;;;;;17.25;5.25;;;33.00;53.90;;;;;;10942666;32;20425;-69
2022/06/23 11:40:10;;;;;;;13.75;5.85;;;33.40;52.80;;;;;;10945115;32;20413;-68
2022/06/23 11:46:31;;;;;;;23.90;7.30;;;33.60;51.60;;;;;;10941600;32;20113;-69
2022/06/23 11:52:52;;;;;;;8.85;5.32;;;34.00;51.10;;;;;;10943365;32;20018;-69
2022/06/23 11:59:14;;;;;;;8.68;5.07;;;34.10;50.80;;;;;;10941512;32;20421;-68
2022/06/23 12:05:17;;;;;;;6.50;4.80;;;34.10;50.60;;;;;;10944317;32;20023;-68
2022/06/23 12:11:19;;;;;;;18.52;7.40;;;33.80;51.10;;;;;;10943891;32;20351;-69
2022/06/23 12:17:37;;;;;;;8.10;5.07;;;33.80;50.80;;;;;;10942357;32;20023;-68
2022/06/23 12:23:57;;;;;;;14.75;6.20;;;33.90;50.10;;;;;;10943615;32;20019;-68
2022/06/23 12:30:08;;;;;;;9.93;4.87;;;34.20;49.40;;;;;;10992118;27;20030;-68
2022/06/23 12:36:39;;;;;;;10.43;5.37;;;34.50;48.90;;;;;;11018822;32;20026;-68
2022/06/23 12:42:50;;;;;;;8.02;5.35;;;34.90;48.10;;;;;;11018660;32;20064;-68
2022/06/23 12:49:06;;;;;;;7.70;5.28;;;34.80;47.10;;;;;;11004807;32;20034;-69
2022/06/23 12:55:27;;;;;;;9.85;5.37;;;34.60;46.60;;;;;;11017587;32;20023;-68
2022/06/23 13:01:33;;;;;;;7.90;4.50;;;34.70;46.70;;;;;;11018308;32;20018;-69
2022/06/23 13:07:41;;;;;;;;;;;34.80;46.50;;;;;;11018313;32;20100;-69
2022/06/23 13:13:49;;;;;;;12.95;6.43;;;34.90;46.00;;;;;;11017760;32;19921;-72
2022/06/23 13:20:07;;;;;;;9.43;4.87;;;34.90;45.90;;;;;;11004145;32;20030;-72
2022/06/23 13:26:28;;;;;;;13.80;7.00;;;34.80;46.00;;;;;;11017632;32;20022;-74
2022/06/23 13:32:34;;;;;;;11.38;5.62;;;34.90;45.50;;;;;;11022960;32;20333;-74
2022/06/23 13:39:04;;;;;;;11.50;5.90;;;34.70;45.10;;;;;;11023318;32;20077;-74
2022/06/23 13:45:22;;;;;;;6.87;5.10;;;34.40;45.00;;;;;;11015297;32;20078;-73
2022/06/23 13:51:55;;;;;;;18.12;7.55;;;34.20;45.60;;;;;;11024403;32;20217;-73
2022/06/23 13:58:16;;;;;;;9.05;6.18;;;34.30;45.40;;;;;;11024195;32;20029;-73
2022/06/23 14:04:32;;;;;;;13.02;5.60;;;34.40;45.20;;;;;;11019648;32;20015;-72
2022/06/23 14:11:03;;;;;;;9.05;4.97;;;34.30;45.60;;;;;;11023837;32;20022;-74
2022/06/23 14:17:16;;;;;;;17.62;6.40;;;34.20;46.40;;;;;;11018129;32;20034;-68
2022/06/23 14:23:42;;;;;;;12.18;5.43;;;34.00;47.30;;;;;;11023567;32;20390;-68
2022/06/23 14:30:14;;;;;;;14.10;7.18;;;33.90;47.90;;;;;;11022999;32;20019;-68
2022/06/23 14:36:28;;;;;;;9.32;6.18;;;33.80;48.40;;;;;;11023004;32;20354;-68
2022/06/23 14:43:03;;;;;;;13.43;5.70;;;33.70;49.20;;;;;;11022495;32;20053;-68
2022/06/23 14:49:33;;;;;;;9.50;6.55;;;33.70;49.70;;;;;;11022709;32;20031;-73
2022/06/23 14:56:06;;;;;;;12.43;7.15;;;33.80;49.80;;;;;;11022496;32;20303;-73
2022/06/23 15:02:30;;;;;;;12.68;6.35;;;33.80;50.00;;;;;;11022176;32;20018;-73
2022/06/23 15:08:50;;;;;;;20.25;7.05;;;33.80;50.20;;;;;;11022063;32;20014;-73
2022/06/23 15:15:57;;;;;;;7.28;6.47;;;33.80;50.40;;;;;;11021890;32;20017;-73
2022/06/23 15:28:50;;;;;;;9.93;6.37;;;33.60;51.30;;;;;;10866468;32;20145;-73
2022/06/23 15:34:56;;;;;;;7.00;5.15;;;33.70;52.30;;;;;;10866695;32;20057;-74
2022/06/23 15:41:22;;;;;;;9.32;6.68;;;33.90;51.90;;;;;;10866501;32;20410;-73
2022/06/23 15:47:47;;;;;;;8.87;5.47;;;34.00;51.90;;;;;;10840118;32;20031;-73
2022/06/23 15:54:03;;;;;;;8.88;5.93;;;33.90;51.90;;;;;;10920597;32;20176;-73
2022/06/23 16:00:33;;;;;;;7.93;5.40;;;33.90;52.00;;;;;;10981794;32;20077;-73
2022/06/23 16:06:39;;;;;;;13.68;7.28;;;33.90;51.80;;;;;;10981819;32;20078;-73
2022/06/23 16:12:45;;;;;;;12.65;6.18;;;33.80;51.20;;;;;;10981400;32;20031;-74
2022/06/23 16:18:53;;;;;;;20.05;8.32;;;33.60;50.40;;;;;;10981278;32;20023;-74
2022/06/23 16:25:00;;;;;;;19.15;6.87;;;33.60;50.00;;;;;;10980910;32;20096;-73
2022/06/23 16:31:21;;;;;;;13.13;6.90;;;33.80;49.40;;;;;;10967393;32;20030;-73
2022/06/23 16:37:44;;;;;;;13.43;5.80;;;33.90;48.30;;;;;;10980750;32;20410;-74
2022/06/23 16:43:53;;;;;;;17.60;6.32;;;33.90;47.00;;;;;;10980572;32;20019;-68
2022/06/23 16:50:18;;;;;;;16.65;5.50;;;33.90;46.40;;;;;;10980545;32;20030;-67
2022/06/23 16:56:38;;;;;;;27.45;5.80;;;33.50;45.90;;;;;;10978946;32;20311;-67
2022/06/23 17:03:06;;;;;;;11.07;5.20;;;33.30;45.60;;;;;;10966457;32;20022;-73
2022/06/23 17:09:42;;;;;;;28.60;7.65;;;33.30;45.70;;;;;;10979294;32;20023;-74
2022/06/23 17:16:00;;;;;;;18.80;6.43;;;33.30;45.10;;;;;;10826494;32;20059;-74
2022/06/23 17:22:32;;;;;;;24.05;7.35;;;33.30;44.80;;;;;;10825322;33;20047;-74
2022/06/23 17:29:04;;;;;;;18.60;6.72;;;33.20;44.80;;;;;;10831791;32;20036;-72
2022/06/23 17:35:41;;;;;;;25.23;5.45;;;33.10;45.20;;;;;;10862034;32;20055;-73
2022/06/23 17:48:28;;;;;;;19.77;5.90;;;33.10;45.90;;;;;;10855823;32;20021;-73
2022/06/23 17:54:33;;;;;;;16.20;6.78;;;33.10;46.10;;;;;;10992570;32;20030;-73
2022/06/23 18:00:45;;;;;;;28.08;6.43;;;33.40;45.80;;;;;;11017121;32;20050;-74
2022/06/23 18:07:00;;;;;;;13.02;5.60;;;33.40;46.20;;;;;;10999693;32;20018;-73
2022/06/23 18:13:15;;;;;;;20.83;7.87;;;33.00;46.80;;;;;;10978852;32;20030;-74
2022/06/23 18:19:55;;;;;;;15.13;6.30;;;32.80;47.70;;;;;;10985290;32;20303;-74
2022/06/23 18:26:12;;;;;;;25.30;7.87;;;32.40;48.20;;;;;;10905625;32;20497;-73
2022/06/23 18:32:30;;;;;;;19.37;7.18;;;32.30;48.80;;;;;;10905316;32;20319;-75
2022/06/23 18:39:19;;;;;;;17.73;7.20;;;32.10;49.00;;;;;;10902700;32;20411;-73
2022/06/23 18:45:36;;;;;;;19.62;6.15;;;32.00;49.20;;;;;;10892471;32;20050;-67
2022/06/23 18:51:38;;;;;;;18.50;6.75;;;31.80;49.60;;;;;;10901132;32;20058;-67
2022/06/23 18:57:44;;;;;;;29.77;8.75;;;31.80;49.80;;;;;;10895174;32;20445;-68
2022/06/23 19:04:05;;;;;;;22.63;6.87;;;31.70;50.00;;;;;;10970228;32;20037;-68
2022/06/23 19:10:40;;;;;;;10.60;5.75;;;31.60;50.30;;;;;;10966698;32;20018;-68
2022/06/23 19:16:47;;;;;;;18.05;6.62;;;31.50;50.60;;;;;;10980215;32;20084;-68
2022/06/23 19:23:14;;;;;;;16.15;6.37;;;31.40;50.80;;;;;;10979761;32;20018;-68
2022/06/23 19:29:29;;;;;;;23.53;8.07;;;31.40;51.00;;;;;;11013482;32;20065;-68
2022/06/23 19:35:32;;;;;;;15.73;6.00;;;31.30;51.20;;;;;;11002926;32;20019;-68
2022/06/23 19:41:57;;;;;;;13.77;5.10;;;31.30;51.40;;;;;;11003890;32;20292;-68
2022/06/23 19:48:13;;;;;;;18.20;5.70;;;31.30;51.60;;;;;;11015959;32;20033;-68
2022/06/23 19:54:49;;;;;;;9.23;4.87;;;31.30;51.80;;;;;;11018301;32;20321;-68
2022/06/23 20:01:06;;;;;;;8.75;4.57;;;31.30;52.00;;;;;;11015753;32;20022;-68
2022/06/23 20:07:27;;;;;;;;;;;31.30;52.30;;;;;;11019141;32;20014;-68
2022/06/23 20:13:36;;;;;;;11.38;4.90;;;31.10;52.50;;;;;;11018280;32;19967;-68
2022/06/23 20:20:12;;;;;;;7.28;3.78;;;31.10;52.90;;;;;;11017377;32;20034;-69
2022/06/23 20:26:54;;;;;;;12.30;4.82;;;31.00;53.40;;;;;;11005730;32;20364;-69
2022/06/23 20:33:25;;;;;;;9.13;3.20;;;30.90;54.00;;;;;;9431245;32;49562866;-68
2022/06/23 20:40:04;;;;;;;10.30;4.10;;;30.80;54.40;;;;;;10939627;32;20062;-74
2022/06/23 20:46:07;;;;;;;9.43;3.83;;;30.80;54.80;;;;;;10942940;32;20085;-74
2022/06/23 20:52:31;;;;;;;10.73;3.37;;;30.70;55.20;;;;;;10941813;32;20022;-68
2022/06/23 20:58:59;;;;;;;11.38;5.05;;;30.60;55.30;;;;;;10925799;32;20358;-69
2022/06/23 21:05:07;;;;;;;10.38;4.75;;;30.60;55.70;;;;;;10942472;32;20407;-69
2022/06/23 21:11:12;;;;;;;12.40;4.12;;;30.40;56.50;;;;;;10942164;32;20027;-68
2022/06/23 21:17:37;;;;;;;10.60;4.05;;;30.30;57.00;;;;;;10941658;32;20030;-69
2022/06/23 21:23:46;;;;;;;13.27;4.07;;;30.10;57.40;;;;;;10940894;32;20022;-68
2022/06/23 21:30:06;;;;;;;7.22;3.30;;;30.00;58.10;;;;;;10941810;32;20300;-68
2022/06/23 21:36:10;;;;;;;8.68;2.72;;;29.80;59.40;;;;;;10941551;32;20058;-68
2022/06/23 21:42:28;;;;;;;8.88;3.28;;;29.70;60.10;;;;;;10942126;32;20467;-69
2022/06/23 21:48:52;;;;;;;5.57;2.35;;;29.40;61.20;;;;;;10941465;32;20027;-69
2022/06/23 21:55:15;;;;;;;7.70;2.50;;;29.40;61.20;;;;;;10948271;32;20027;-69
2022/06/23 22:01:44;;;;;;;3.75;1.70;;;29.30;61.60;;;;;;10948785;32;20062;-73
2022/06/23 22:07:59;;;;;;;4.80;1.75;;;29.30;61.70;;;;;;10948480;32;20041;-73
2022/06/23 22:14:08;;;;;;;4.25;2.33;;;29.30;61.70;;;;;;10948137;32;20035;-73
2022/06/23 22:20:35;;;;;;;3.80;1.98;;;29.30;62.00;;;;;;10948101;32;20323;-71
2022/06/23 22:26:40;;;;;;;4.30;2.20;;;29.30;62.10;;;;;;10947857;32;20093;-71
2022/06/23 22:32:55;;;;;;;6.75;1.65;;;29.00;63.10;;;;;;10947600;32;20448;-73
2022/06/23 22:39:00;;;;;;;3.58;2.12;;;28.80;63.90;;;;;;10947585;32;20399;-73
2022/06/23 22:45:08;;;;;;;3.60;2.78;;;28.80;64.00;;;;;;10947361;32;20050;-71
2022/06/23 22:51:12;;;;;;;5.82;3.15;;;28.80;63.80;;;;;;10947116;32;20023;-71
2022/06/23 22:57:37;;;;;;;6.97;2.20;;;28.70;64.30;;;;;;10946812;32;20041;-73
2022/06/23 23:04:05;;;;;;;2.17;1.50;;;28.50;64.60;;;;;;10932880;32;20022;-74
2022/06/23 23:10:13;;;;;;;4.07;1.70;;;28.60;64.30;;;;;;10946530;32;20015;-71
2022/06/23 23:16:31;;;;;;;3.72;1.90;;;28.60;64.50;;;;;;10946818;32;20019;-73
2022/06/23 23:22:35;;;;;;;1.27;1.12;;;28.30;65.80;;;;;;10932494;32;20399;-74
2022/06/23 23:28:37;;;;;;;4.00;1.65;;;28.20;65.70;;;;;;10932277;32;20026;-72
2022/06/23 23:34:44;;;;;;;2.28;1.58;;;28.20;65.60;;;;;;10941151;32;20057;-73
2022/06/23 23:40:48;;;;;;;3.53;1.40;;;28.30;65.70;;;;;;10945392;32;20024;-71
2022/06/23 23:47:10;;;;;;;2.45;1.70;;;28.30;65.70;;;;;;10945099;32;20027;-73
2022/06/23 23:53:19;;;;;;;1.75;1.35;;;28.20;65.90;;;;;;10944752;32;20045;-72
2022/06/23 23:59:24;;;;;;;3.50;1.85;;;28.20;66.10;;;;;;10944589;32;20350;-72
